createdAt,value
2017-09-02T00:01:52.281Z,85.60
2017-09-02T00:04:18.612Z,86.20
2017-09-02T00:06:44.894Z,86.00
2017-09-02T00:09:11.209Z,85.40
2017-09-02T00:11:37.512Z,85.30
2017-09-02T00:14:04.250Z,86.40
2017-09-02T00:16:30.530Z,86.20
2017-09-02T00:18:56.803Z,85.40
2017-09-02T00:21:23.111Z,85.60
2017-09-02T00:23:49.394Z,85.20
2017-09-02T00:26:15.702Z,84.70
2017-09-02T00:28:41.982Z,84.30
2017-09-02T00:31:08.664Z,83.90
2017-09-02T00:33:34.973Z,85.40
2017-09-02T00:36:01.269Z,85.50
2017-09-02T00:38:27.553Z,85.60
2017-09-02T00:40:53.891Z,85.80
2017-09-02T00:43:20.224Z,86.40
2017-09-02T00:45:46.540Z,86.70
2017-09-02T00:48:12.842Z,86.00
2017-09-02T00:50:39.145Z,85.60
2017-09-02T00:53:05.512Z,84.90
2017-09-02T00:55:31.848Z,84.90
2017-09-02T00:57:58.211Z,84.50
2017-09-02T01:00:24.530Z,84.80
2017-09-02T01:02:50.839Z,84.70
2017-09-02T01:05:17.153Z,84.60
2017-09-02T01:07:43.469Z,84.40
2017-09-02T01:10:09.781Z,84.20
2017-09-02T01:12:36.113Z,84.30
2017-09-02T01:15:02.451Z,84.10
2017-09-02T01:17:28.739Z,84.60
2017-09-02T01:19:55.050Z,84.10
2017-09-02T01:22:21.334Z,84.30
2017-09-02T01:24:47.634Z,84.60
2017-09-02T01:27:13.924Z,86.40
2017-09-02T01:29:40.210Z,86.50
2017-09-02T01:32:06.478Z,86.10
2017-09-02T01:34:32.784Z,85.80
2017-09-02T01:36:59.069Z,86.00
2017-09-02T01:39:25.358Z,85.40
2017-09-02T01:41:51.669Z,85.40
2017-09-02T01:44:17.947Z,85.40
2017-09-02T01:46:44.249Z,85.00
2017-09-02T01:49:10.517Z,84.30
2017-09-02T01:51:36.833Z,84.10
2017-09-02T01:54:03.107Z,84.10
2017-09-02T01:56:29.405Z,83.70
2017-09-02T01:58:55.702Z,83.70
2017-09-02T02:01:22.629Z,83.30
2017-09-02T02:03:48.944Z,84.10
2017-09-02T02:06:15.268Z,83.90
2017-09-02T02:08:41.562Z,84.30
2017-09-02T02:11:07.835Z,84.30
2017-09-02T02:13:34.147Z,84.30
2017-09-02T02:16:00.425Z,84.90
2017-09-02T02:18:26.730Z,84.00
2017-09-02T02:20:52.985Z,84.30
2017-09-02T02:23:19.294Z,85.20
2017-09-02T02:25:45.581Z,85.50
2017-09-02T02:28:11.915Z,86.20
2017-09-02T02:30:38.217Z,86.00
2017-09-02T02:33:04.487Z,86.70
2017-09-02T02:35:30.790Z,85.30
2017-09-02T02:37:57.079Z,84.80
2017-09-02T02:40:23.381Z,84.40
2017-09-02T02:42:49.654Z,84.90
2017-09-02T02:45:16.419Z,84.70
2017-09-02T02:47:42.685Z,85.20
2017-09-02T02:50:08.958Z,84.80
2017-09-02T02:52:35.253Z,85.30
2017-09-02T02:55:01.530Z,85.20
2017-09-02T02:57:27.831Z,85.00
2017-09-02T02:59:54.110Z,85.50
2017-09-02T03:02:21.190Z,85.00
2017-09-02T03:04:47.470Z,84.70
2017-09-02T03:07:13.753Z,85.10
2017-09-02T03:09:40.028Z,85.40
2017-09-02T03:12:06.314Z,85.10
2017-09-02T03:14:32.644Z,85.70
2017-09-02T03:16:58.916Z,85.30
2017-09-02T03:19:25.214Z,85.10
2017-09-02T03:21:51.499Z,85.10
2017-09-02T03:24:17.793Z,86.00
2017-09-02T03:26:44.067Z,85.90
2017-09-02T03:29:10.401Z,85.20
2017-09-02T03:31:36.674Z,85.60
2017-09-02T03:34:02.965Z,84.60
2017-09-02T03:36:29.248Z,84.40
2017-09-02T03:38:55.537Z,84.40
2017-09-02T03:41:21.832Z,83.90
2017-09-02T03:43:48.114Z,83.80
2017-09-02T03:46:14.473Z,84.10
2017-09-02T03:48:40.793Z,84.00
2017-09-02T03:51:07.097Z,84.50
2017-09-02T03:53:33.392Z,84.40
2017-09-02T03:55:59.695Z,83.90
2017-09-02T03:58:25.976Z,82.90
2017-09-02T04:00:52.278Z,83.80
2017-09-02T04:03:18.558Z,84.20
2017-09-02T04:05:44.837Z,85.10
2017-09-02T04:08:11.150Z,84.30
2017-09-02T04:10:37.408Z,84.40
2017-09-02T04:13:03.701Z,84.30
2017-09-02T04:15:30.013Z,84.20
2017-09-02T04:17:56.293Z,83.90
2017-09-02T04:20:22.573Z,83.50
2017-09-02T04:22:48.877Z,82.90
2017-09-02T04:25:15.178Z,83.00
2017-09-02T04:27:41.484Z,83.50
2017-09-02T04:30:07.786Z,83.60
2017-09-02T04:32:34.045Z,83.70
2017-09-02T04:35:00.335Z,83.20
2017-09-02T04:37:26.638Z,82.90
2017-09-02T04:39:53.004Z,83.00
2017-09-02T04:42:19.299Z,83.20
2017-09-02T04:44:45.594Z,83.20
2017-09-02T04:47:11.874Z,83.50
2017-09-02T04:49:38.178Z,83.30
2017-09-02T04:52:04.445Z,83.40
2017-09-02T04:54:30.749Z,83.40
2017-09-02T04:56:57.048Z,83.40
2017-09-02T04:59:23.354Z,83.20
2017-09-02T05:01:49.621Z,83.30
2017-09-02T05:04:15.903Z,83.80
2017-09-02T05:06:42.187Z,84.00
2017-09-02T05:09:08.488Z,83.70
2017-09-02T05:11:34.775Z,83.60
2017-09-02T05:14:01.058Z,83.40
2017-09-02T05:16:27.362Z,83.40
2017-09-02T05:18:53.631Z,83.30
2017-09-02T05:21:19.961Z,83.30
2017-09-02T05:23:46.245Z,83.00
2017-09-02T05:26:12.571Z,83.60
2017-09-02T05:28:38.861Z,84.40
2017-09-02T05:31:05.185Z,84.20
2017-09-02T05:33:32.413Z,84.10
2017-09-02T05:35:58.682Z,83.60
2017-09-02T05:38:24.965Z,83.20
2017-09-02T05:40:51.261Z,83.40
2017-09-02T05:43:17.563Z,82.90
2017-09-02T05:45:43.839Z,82.40
2017-09-02T05:48:10.167Z,82.60
2017-09-02T05:50:36.449Z,82.50
2017-09-02T05:53:02.759Z,82.50
2017-09-02T05:55:29.055Z,82.40
2017-09-02T05:57:55.356Z,82.10
2017-09-02T06:00:21.684Z,82.20
2017-09-02T06:02:48.022Z,81.80
2017-09-02T06:05:14.329Z,81.60
2017-09-02T06:07:40.951Z,81.60
2017-09-02T06:10:07.269Z,81.00
2017-09-02T06:12:33.544Z,80.90
2017-09-02T06:14:59.866Z,79.80
2017-09-02T06:17:26.190Z,80.30
2017-09-02T06:19:52.476Z,80.50
2017-09-02T06:22:18.767Z,80.60
2017-09-02T06:24:45.086Z,80.60
2017-09-02T06:27:11.365Z,80.20
2017-09-02T06:29:37.644Z,79.40
2017-09-02T06:32:03.932Z,80.70
2017-09-02T06:34:30.202Z,80.00
2017-09-02T06:36:56.518Z,80.50
2017-09-02T06:39:22.803Z,79.60
2017-09-02T06:41:49.119Z,81.80
2017-09-02T06:44:15.413Z,81.60
2017-09-02T06:46:41.716Z,80.80
2017-09-02T06:49:08.008Z,81.60
2017-09-02T06:51:34.315Z,81.10
2017-09-02T06:54:00.622Z,80.90
2017-09-02T06:56:26.890Z,80.10
2017-09-02T06:58:53.203Z,80.00
2017-09-02T07:01:19.575Z,78.80
2017-09-02T07:03:45.858Z,80.10
2017-09-02T07:06:12.114Z,79.70
2017-09-02T07:08:38.421Z,81.30
2017-09-02T07:11:04.745Z,80.70
2017-09-02T07:13:31.051Z,80.60
2017-09-02T07:15:57.373Z,80.00
2017-09-02T07:18:23.651Z,79.50
2017-09-02T07:20:49.973Z,79.40
2017-09-02T07:23:16.274Z,79.00
2017-09-02T07:25:42.594Z,78.60
2017-09-02T07:28:08.885Z,77.50
2017-09-02T07:30:35.148Z,77.20
2017-09-02T07:33:01.470Z,78.30
2017-09-02T07:35:27.739Z,78.50
2017-09-02T07:37:54.041Z,78.00
2017-09-02T07:40:20.323Z,77.80
2017-09-02T07:42:46.643Z,77.50
2017-09-02T07:45:12.902Z,77.80
2017-09-02T07:47:39.573Z,77.80
2017-09-02T07:50:05.867Z,77.90
2017-09-02T07:52:32.113Z,77.60
2017-09-02T07:54:58.408Z,76.50
2017-09-02T07:57:24.711Z,76.70
2017-09-02T07:59:51.047Z,76.90
2017-09-02T08:02:17.337Z,76.30
2017-09-02T08:04:43.659Z,75.80
2017-09-02T08:07:09.991Z,76.50
2017-09-02T08:09:36.298Z,75.90
2017-09-02T08:12:02.615Z,76.60
2017-09-02T08:14:28.966Z,75.70
2017-09-02T08:16:55.259Z,76.00
2017-09-02T08:19:21.587Z,76.10
2017-09-02T08:21:47.856Z,76.20
2017-09-02T08:24:14.139Z,75.70
2017-09-02T08:26:40.447Z,73.70
2017-09-02T08:29:08.233Z,75.00
2017-09-02T08:31:34.522Z,75.00
2017-09-02T08:34:00.793Z,76.50
2017-09-02T08:36:28.081Z,76.90
2017-09-02T08:38:54.379Z,75.80
2017-09-02T08:41:20.667Z,74.50
2017-09-02T08:43:46.964Z,74.40
2017-09-02T08:46:13.253Z,74.10
2017-09-02T08:48:39.591Z,73.20
2017-09-02T08:51:05.855Z,73.20
2017-09-02T08:53:32.147Z,71.60
2017-09-02T08:55:58.439Z,72.10
2017-09-02T08:58:24.741Z,71.60
2017-09-02T09:00:51.020Z,70.80
2017-09-02T09:03:17.319Z,72.70
2017-09-02T09:05:44.397Z,72.40
2017-09-02T09:08:10.682Z,72.30
2017-09-02T09:10:36.983Z,71.80
2017-09-02T09:13:03.265Z,72.00
2017-09-02T09:15:29.632Z,72.80
2017-09-02T09:17:55.901Z,72.40
2017-09-02T09:20:22.240Z,72.30
2017-09-02T09:22:48.514Z,70.40
2017-09-02T09:25:14.818Z,71.30
2017-09-02T09:27:41.089Z,70.20
2017-09-02T09:30:07.403Z,71.20
2017-09-02T09:32:33.661Z,70.80
2017-09-02T09:35:00.016Z,69.30
2017-09-02T09:37:26.317Z,69.70
2017-09-02T09:39:52.881Z,68.90
2017-09-02T09:42:19.169Z,65.90
2017-09-02T09:44:45.461Z,68.80
2017-09-02T09:47:11.803Z,68.80
2017-09-02T09:49:38.118Z,66.10
2017-09-02T09:52:04.406Z,68.30
2017-09-02T09:54:30.705Z,66.60
2017-09-02T09:56:56.992Z,66.00
2017-09-02T09:59:23.303Z,66.80
2017-09-02T10:01:49.627Z,62.70
2017-09-02T10:04:15.956Z,62.70
2017-09-02T10:06:42.288Z,64.00
2017-09-02T10:09:08.606Z,64.70
2017-09-02T10:11:34.914Z,63.30
2017-09-02T10:14:01.252Z,60.50
2017-09-02T10:16:27.584Z,61.00
2017-09-02T10:18:53.900Z,62.20
2017-09-02T10:21:20.210Z,61.00
2017-09-02T10:23:46.565Z,63.70
2017-09-02T10:26:12.879Z,63.30
2017-09-02T10:28:39.199Z,63.20
2017-09-02T10:31:05.514Z,64.40
2017-09-02T10:33:31.830Z,62.90
2017-09-02T10:35:58.148Z,62.50
2017-09-02T10:38:24.438Z,62.10
2017-09-02T10:40:50.796Z,63.40
2017-09-02T10:43:17.095Z,63.80
2017-09-02T10:45:43.440Z,61.90
2017-09-02T10:48:09.782Z,63.70
2017-09-02T10:50:36.571Z,62.60
2017-09-02T10:53:02.882Z,62.20
2017-09-02T10:55:29.172Z,62.10
2017-09-02T10:57:55.495Z,63.50
2017-09-02T11:00:21.778Z,64.20
2017-09-02T11:02:48.266Z,64.70
2017-09-02T11:05:14.577Z,66.50
2017-09-02T11:07:41.306Z,64.40
2017-09-02T11:10:07.626Z,64.30
2017-09-02T11:12:33.937Z,64.00
2017-09-02T11:15:00.278Z,62.30
2017-09-02T11:17:26.571Z,63.60
2017-09-02T11:19:52.893Z,63.30
2017-09-02T11:22:19.218Z,62.20
2017-09-02T11:24:45.548Z,63.50
2017-09-02T11:27:11.845Z,62.00
2017-09-02T11:29:38.174Z,61.30
2017-09-02T11:32:04.879Z,61.50
2017-09-02T11:34:32.033Z,58.20
2017-09-02T11:36:58.335Z,62.10
2017-09-02T11:39:24.606Z,59.80
2017-09-02T11:41:50.939Z,60.20
2017-09-02T11:44:17.257Z,59.30
2017-09-02T11:46:43.586Z,58.10
2017-09-02T11:49:09.943Z,59.70
2017-09-02T11:51:36.249Z,59.90
2017-09-02T11:54:02.643Z,59.60
2017-09-02T11:56:28.956Z,59.20
2017-09-02T11:58:56.759Z,57.80
2017-09-02T12:01:23.071Z,56.50
2017-09-02T12:03:49.378Z,56.50
2017-09-02T12:06:15.669Z,54.80
2017-09-02T12:08:41.977Z,53.30
2017-09-02T12:11:09.558Z,54.90
2017-09-02T12:13:36.606Z,57.60
2017-09-02T12:16:02.920Z,54.80
2017-09-02T12:18:29.201Z,53.80
2017-09-02T12:20:55.498Z,48.70
2017-09-02T12:23:21.859Z,50.40
2017-09-02T12:25:48.166Z,47.20
2017-09-02T12:28:14.453Z,47.30
2017-09-02T12:30:40.747Z,47.30
2017-09-02T12:33:07.067Z,43.40
2017-09-02T12:35:33.357Z,43.60
2017-09-02T12:37:59.680Z,42.90
2017-09-02T12:40:25.960Z,40.30
2017-09-02T12:42:52.271Z,43.90
2017-09-02T12:45:18.943Z,42.90
2017-09-02T12:47:45.221Z,40.60
2017-09-02T12:50:11.494Z,40.60
2017-09-02T12:52:37.810Z,39.40
2017-09-02T12:55:04.097Z,38.80
2017-09-02T12:57:30.400Z,38.70
2017-09-02T12:59:56.710Z,36.40
2017-09-02T13:02:23.034Z,36.20
2017-09-02T13:04:50.140Z,35.70
2017-09-02T13:07:16.438Z,35.30
2017-09-02T13:09:42.726Z,36.10
2017-09-02T13:12:09.044Z,35.60
2017-09-02T13:14:35.810Z,37.40
2017-09-02T13:17:02.079Z,38.20
2017-09-02T13:19:28.353Z,35.20
2017-09-02T13:21:54.652Z,36.10
2017-09-02T13:24:20.925Z,37.80
2017-09-02T13:26:47.237Z,33.90
2017-09-02T13:29:13.508Z,36.60
2017-09-02T13:31:39.819Z,34.10
2017-09-02T13:34:06.127Z,31.90
2017-09-02T13:36:32.428Z,31.90
2017-09-02T13:38:58.732Z,32.40
2017-09-02T13:41:25.067Z,30.00
2017-09-02T13:43:51.382Z,29.40
2017-09-02T13:46:17.665Z,26.80
2017-09-02T13:48:43.957Z,26.50
2017-09-02T13:51:10.251Z,28.50
2017-09-02T13:53:36.539Z,26.10
2017-09-02T13:56:02.849Z,27.30
2017-09-02T13:58:29.429Z,32.10
2017-09-02T14:00:55.717Z,34.70
2017-09-02T14:03:21.992Z,35.30
2017-09-02T14:05:48.322Z,35.00
2017-09-02T14:08:14.621Z,38.60
2017-09-02T14:10:40.944Z,38.20
2017-09-02T14:13:07.901Z,39.30
2017-09-02T14:15:34.255Z,40.70
2017-09-02T14:18:00.548Z,42.20
2017-09-02T14:20:26.857Z,43.20
2017-09-02T14:22:53.133Z,36.10
2017-09-02T14:25:19.459Z,35.50
2017-09-02T14:27:45.770Z,39.20
2017-09-02T14:30:12.075Z,39.60
2017-09-02T14:32:38.391Z,39.50
2017-09-02T14:35:04.733Z,39.20
2017-09-02T14:37:31.029Z,36.50
2017-09-02T14:39:57.310Z,37.50
2017-09-02T14:42:23.609Z,37.50
2017-09-02T14:44:49.898Z,40.30
2017-09-02T14:47:16.220Z,41.10
2017-09-02T14:49:42.497Z,43.20
2017-09-02T14:52:08.810Z,45.10
2017-09-02T14:54:35.103Z,47.30
2017-09-02T14:57:01.429Z,47.60
2017-09-02T14:59:27.733Z,47.90
2017-09-02T15:01:54.071Z,49.80
2017-09-02T15:04:20.369Z,42.50
2017-09-02T15:06:46.683Z,34.20
2017-09-02T15:09:12.967Z,31.20
2017-09-02T15:11:39.248Z,26.20
2017-09-02T15:14:05.542Z,26.10
2017-09-02T15:16:31.879Z,24.40
2017-09-02T15:18:58.161Z,23.40
2017-09-02T15:21:24.507Z,22.80
2017-09-02T15:23:50.779Z,23.60
2017-09-02T15:26:17.095Z,25.10
2017-09-02T15:28:43.392Z,30.80
2017-09-02T15:31:09.750Z,35.70
2017-09-02T15:33:36.038Z,36.50
2017-09-02T15:36:02.360Z,39.10
2017-09-02T15:38:28.665Z,41.20
2017-09-02T15:40:54.978Z,43.40
2017-09-02T15:43:21.275Z,45.20
2017-09-02T15:45:47.554Z,47.30
2017-09-02T15:48:13.860Z,50.40
2017-09-02T15:50:40.147Z,50.90
2017-09-02T15:53:06.473Z,53.40
2017-09-02T15:55:32.793Z,54.30
2017-09-02T15:57:59.085Z,55.50
2017-09-02T16:00:25.385Z,56.90
2017-09-02T16:02:51.680Z,58.80
2017-09-02T16:05:17.975Z,62.80
2017-09-02T16:07:44.246Z,63.00
2017-09-02T16:10:10.558Z,65.50
2017-09-02T16:12:37.474Z,67.10
2017-09-02T16:15:03.803Z,66.60
2017-09-02T16:17:30.680Z,68.30
2017-09-02T16:19:57.657Z,68.40
2017-09-02T16:22:23.988Z,68.50
2017-09-02T16:24:50.294Z,68.80
2017-09-02T16:27:17.545Z,69.10
2017-09-02T16:29:43.876Z,68.80
2017-09-02T16:32:10.195Z,70.20
2017-09-02T16:34:36.485Z,69.70
2017-09-02T16:37:02.840Z,69.10
2017-09-02T16:39:29.145Z,70.60
2017-09-02T16:41:55.463Z,70.80
2017-09-02T16:44:21.738Z,69.70
2017-09-02T16:46:48.091Z,70.00
2017-09-02T16:49:14.480Z,69.80
2017-09-02T16:51:40.820Z,69.80
2017-09-02T16:54:07.145Z,69.70
2017-09-02T16:56:33.487Z,69.60
2017-09-02T16:58:59.828Z,69.90
2017-09-02T17:01:26.749Z,70.00
2017-09-02T17:03:53.093Z,70.80
2017-09-02T17:06:19.400Z,69.60
2017-09-02T17:08:45.743Z,70.00
2017-09-02T17:11:12.096Z,70.60
2017-09-02T17:13:38.421Z,70.50
2017-09-02T17:16:04.785Z,71.10
2017-09-02T17:18:31.124Z,71.20
2017-09-02T17:20:57.497Z,70.70
2017-09-02T17:23:23.835Z,70.30
2017-09-02T17:25:50.215Z,70.50
2017-09-02T17:28:16.566Z,69.90
2017-09-02T17:30:42.919Z,70.20
2017-09-02T17:33:09.213Z,70.40
2017-09-02T17:35:35.561Z,70.30
2017-09-02T17:38:01.874Z,71.20
2017-09-02T17:40:28.180Z,71.20
2017-09-02T17:42:54.470Z,71.10
2017-09-02T17:45:21.127Z,71.80
2017-09-02T17:47:47.437Z,72.00
2017-09-02T17:50:13.704Z,73.00
2017-09-02T17:52:40.028Z,74.00
2017-09-02T17:55:06.321Z,72.80
2017-09-02T17:57:32.625Z,74.60
2017-09-02T17:59:58.910Z,73.80
2017-09-02T18:02:25.232Z,74.60
2017-09-02T18:04:51.608Z,73.70
2017-09-02T18:07:18.038Z,74.40
2017-09-02T18:09:44.381Z,74.10
2017-09-02T18:12:10.710Z,74.20
2017-09-02T18:14:37.056Z,74.00
2017-09-02T18:17:03.409Z,74.50
2017-09-02T18:19:29.710Z,74.40
2017-09-02T18:21:56.013Z,75.00
2017-09-02T18:24:22.306Z,75.20
2017-09-02T18:26:48.624Z,75.80
2017-09-02T18:29:14.928Z,75.90
2017-09-02T18:31:41.225Z,75.80
2017-09-02T18:34:07.550Z,76.40
2017-09-02T18:36:33.859Z,76.50
2017-09-02T18:39:00.195Z,76.40
2017-09-02T18:41:27.453Z,76.50
2017-09-02T18:43:53.854Z,76.70
2017-09-02T18:46:20.235Z,77.20
2017-09-02T18:48:46.730Z,76.70
2017-09-02T18:51:14.115Z,77.00
2017-09-02T18:53:40.647Z,77.40
2017-09-02T18:56:07.003Z,77.70
2017-09-02T18:58:33.367Z,77.30
2017-09-02T19:00:59.685Z,77.50
2017-09-02T19:03:25.998Z,77.50
2017-09-02T19:05:52.342Z,78.00
2017-09-02T19:08:18.680Z,78.40
2017-09-02T19:10:45.014Z,78.40
2017-09-02T19:13:11.290Z,78.30
2017-09-02T19:15:38.264Z,78.20
2017-09-02T19:18:04.521Z,79.00
2017-09-02T19:20:30.853Z,79.10
2017-09-02T19:22:57.162Z,79.30
2017-09-02T19:25:23.474Z,79.20
2017-09-02T19:27:49.759Z,79.10
2017-09-02T19:30:16.058Z,78.70
2017-09-02T19:32:42.360Z,79.10
2017-09-02T19:35:08.704Z,79.10
2017-09-02T19:37:35.076Z,79.00
2017-09-02T19:40:01.361Z,79.20
2017-09-02T19:42:27.712Z,79.60
2017-09-02T19:44:54.069Z,79.30
2017-09-02T19:47:20.401Z,79.40
2017-09-02T19:49:46.870Z,79.30
2017-09-02T19:52:13.357Z,79.30
2017-09-02T19:54:39.763Z,79.10
2017-09-02T19:57:06.078Z,79.20
2017-09-02T19:59:32.408Z,79.30
2017-09-02T20:01:58.736Z,78.90
2017-09-02T20:04:25.126Z,78.60
2017-09-02T20:06:51.700Z,79.00
2017-09-02T20:09:18.047Z,78.70
2017-09-02T20:11:44.592Z,78.80
2017-09-02T20:14:12.052Z,79.30
2017-09-02T20:16:38.413Z,79.80
2017-09-02T20:19:04.745Z,80.20
2017-09-02T20:21:31.135Z,79.80
2017-09-02T20:23:58.234Z,79.70
2017-09-02T20:26:24.616Z,79.40
2017-09-02T20:28:51.295Z,79.40
2017-09-02T20:31:17.594Z,79.80
2017-09-02T20:33:43.894Z,79.30
2017-09-02T20:36:10.271Z,79.30
2017-09-02T20:38:37.482Z,79.60
2017-09-02T20:41:03.768Z,79.90
2017-09-02T20:43:30.103Z,79.20
2017-09-02T20:45:56.434Z,79.00
2017-09-02T20:48:22.803Z,78.60
2017-09-02T20:50:49.170Z,78.50
2017-09-02T20:53:15.511Z,78.70
2017-09-02T20:55:41.911Z,78.50
2017-09-02T20:58:08.271Z,78.30
2017-09-02T21:00:34.626Z,78.30
2017-09-02T21:03:00.979Z,78.50
2017-09-02T21:05:27.289Z,78.20
2017-09-02T21:07:53.593Z,78.90
2017-09-02T21:10:19.978Z,78.30
2017-09-02T21:12:46.267Z,77.40
2017-09-02T21:15:12.574Z,76.50
2017-09-02T21:17:38.956Z,78.30
2017-09-02T21:20:05.267Z,78.40
2017-09-02T21:22:31.662Z,79.90
2017-09-02T21:24:57.960Z,79.20
2017-09-02T21:27:24.277Z,79.10
2017-09-02T21:29:50.566Z,79.40
2017-09-02T21:32:16.900Z,78.70
2017-09-02T21:34:43.179Z,79.10
2017-09-02T21:37:09.457Z,79.50
2017-09-02T21:39:36.097Z,79.60
2017-09-02T21:42:02.387Z,79.30
2017-09-02T21:44:28.715Z,78.90
2017-09-02T21:46:55.003Z,79.20
2017-09-02T21:49:21.703Z,79.60
2017-09-02T21:51:47.989Z,79.20
2017-09-02T21:54:14.320Z,79.40
2017-09-02T21:56:40.597Z,79.20
2017-09-02T21:59:06.872Z,79.20
2017-09-02T22:01:33.187Z,78.90
2017-09-02T22:03:59.495Z,79.00
2017-09-02T22:06:25.789Z,78.70
2017-09-02T22:08:52.093Z,79.20
2017-09-02T22:11:18.411Z,79.20
2017-09-02T22:13:44.698Z,79.40
2017-09-02T22:16:10.987Z,79.60
2017-09-02T22:18:37.299Z,80.10
2017-09-02T22:21:03.569Z,79.90
2017-09-02T22:23:29.885Z,80.00
2017-09-02T22:25:56.173Z,79.90
2017-09-02T22:28:22.469Z,79.80
2017-09-02T22:30:48.736Z,80.10
2017-09-02T22:33:15.034Z,80.10
2017-09-02T22:35:41.326Z,79.30
2017-09-02T22:38:07.632Z,79.30
2017-09-02T22:40:33.936Z,80.00
2017-09-02T22:43:00.205Z,80.00
2017-09-02T22:45:27.273Z,79.80
2017-09-02T22:47:53.544Z,80.00
2017-09-02T22:50:20.221Z,79.60
2017-09-02T22:52:46.536Z,79.40
2017-09-02T22:55:12.814Z,79.20
2017-09-02T22:57:39.119Z,80.30
2017-09-02T23:00:05.423Z,79.80
2017-09-02T23:02:31.719Z,79.80
2017-09-02T23:04:58.022Z,79.60
2017-09-02T23:07:24.322Z,78.70
2017-09-02T23:09:50.627Z,79.30
2017-09-02T23:12:16.934Z,79.20
2017-09-02T23:14:43.231Z,79.30
2017-09-02T23:17:09.511Z,79.50
2017-09-02T23:19:35.827Z,80.40
2017-09-02T23:22:02.130Z,79.50
2017-09-02T23:24:28.420Z,80.80
2017-09-02T23:26:54.724Z,80.70
2017-09-02T23:29:21.009Z,80.60
2017-09-02T23:31:47.297Z,80.90
2017-09-02T23:34:13.561Z,80.20
2017-09-02T23:36:39.844Z,80.10
2017-09-02T23:39:06.147Z,79.80
2017-09-02T23:41:32.436Z,79.90
2017-09-02T23:43:58.706Z,80.30
2017-09-02T23:46:24.993Z,81.80
2017-09-02T23:48:51.301Z,82.00
2017-09-02T23:51:17.583Z,81.60
2017-09-02T23:53:43.885Z,82.00
2017-09-02T23:56:10.189Z,81.80
2017-09-02T23:58:36.477Z,81.30
